CYXC

Cranbrook Airport

Cranbrook, British Columbia, Canada
METAR CYXC 170200Z 00000KT 25SM SKC 06/M02 A3040 RMK SLP329
Observed Flight Rules
Oct-17 @ 02:00 UTC (an hour ago) Visual Flight Rules
Visibility Clouds
25 miles
  • Clear skies
Temperatures Readings
Current 6°C / 43°F
Dewpoint -2°C / 28°F
Humidity 57%
Altimeter 30.4" Hg
Pressure 1032.9 hPa
Elevation 939
METAR CYXC 170200Z 00000KT 25SM SKC 06/M02 A3040 RMK SLP329
Observed Flight Rules
Oct-17 @ 02:00 UTC
(an hour ago)
VFR
Clouds
  • Clear skies
Temperature Dewpoint
6°C / 43°F -2°C / 28°F
Humidity Altimeter Pressure
57% 30.4" Hg 1032.9 hPa